createdAt,value
2023-01-09T00:01:51.319Z,66.44
2023-01-09T00:04:19.936Z,66.24
2023-01-09T00:06:54.224Z,66.36
2023-01-09T00:09:24.391Z,66.33
2023-01-09T00:11:53.040Z,65.79
2023-01-09T00:14:22.996Z,65.83
2023-01-09T00:16:51.311Z,65.97
2023-01-09T00:19:19.617Z,65.75
2023-01-09T00:21:47.827Z,65.55
2023-01-09T00:24:16.079Z,65.18
2023-01-09T00:26:44.256Z,65.29
2023-01-09T00:29:12.493Z,64.33
2023-01-09T00:31:40.560Z,63.72
2023-01-09T00:34:10.690Z,63.79
2023-01-09T00:36:38.949Z,63.63
2023-01-09T00:39:06.994Z,63.32
2023-01-09T00:41:40.331Z,62.77
2023-01-09T00:44:14.770Z,62.75
2023-01-09T00:46:48.768Z,62.77
2023-01-09T00:49:17.893Z,63.00
2023-01-09T00:51:47.174Z,63.49
2023-01-09T00:54:17.989Z,63.83
2023-01-09T00:56:46.503Z,63.53
2023-01-09T00:59:14.872Z,62.92
2023-01-09T01:01:43.112Z,62.51
2023-01-09T01:04:29.768Z,62.89
2023-01-09T01:07:16.668Z,63.26
2023-01-09T01:09:44.777Z,63.05
2023-01-09T01:12:13.178Z,63.30
2023-01-09T01:14:41.462Z,63.87
2023-01-09T01:17:09.698Z,65.14
2023-01-09T01:19:38.020Z,65.59
2023-01-09T01:22:06.189Z,65.27
2023-01-09T01:24:34.362Z,64.34
2023-01-09T01:27:02.811Z,64.41
2023-01-09T01:29:30.908Z,64.56
2023-01-09T01:31:59.065Z,64.38
2023-01-09T01:34:28.901Z,64.85
2023-01-09T01:36:56.934Z,64.63
2023-01-09T01:39:25.036Z,63.53
2023-01-09T01:41:53.315Z,63.06
2023-01-09T01:44:59.063Z,63.79
2023-01-09T01:47:34.129Z,63.84
2023-01-09T01:50:08.230Z,63.06
2023-01-09T01:52:37.538Z,61.81
2023-01-09T01:55:08.515Z,61.27
2023-01-09T01:57:41.053Z,60.73
2023-01-09T02:00:12.071Z,61.10
2023-01-09T02:02:40.494Z,61.49
2023-01-09T02:05:09.429Z,61.22
2023-01-09T02:07:37.550Z,61.52
2023-01-09T02:10:06.437Z,61.90
2023-01-09T02:12:34.659Z,61.95
2023-01-09T02:15:12.297Z,62.35
2023-01-09T02:17:58.885Z,61.70
2023-01-09T02:20:36.273Z,61.56
2023-01-09T02:23:07.292Z,61.55
2023-01-09T02:26:13.052Z,61.83
2023-01-09T02:29:16.713Z,61.64
2023-01-09T02:32:07.943Z,61.58
2023-01-09T02:34:54.970Z,61.22
2023-01-09T02:37:34.929Z,59.82
2023-01-09T02:40:33.733Z,60.71
2023-01-09T02:43:03.568Z,60.87
2023-01-09T02:45:32.059Z,60.87
2023-01-09T02:48:00.377Z,61.47
2023-01-09T02:50:39.796Z,61.89
2023-01-09T02:53:40.976Z,62.00
2023-01-09T02:56:37.099Z,62.14
2023-01-09T02:59:32.237Z,62.96
2023-01-09T03:02:00.520Z,64.12
2023-01-09T03:05:00.712Z,64.76
2023-01-09T03:07:42.023Z,64.87
2023-01-09T03:10:23.551Z,65.10
2023-01-09T03:12:54.351Z,64.04
2023-01-09T03:15:27.137Z,64.44
2023-01-09T03:17:55.969Z,64.82
2023-01-09T03:20:27.926Z,64.65
2023-01-09T03:22:58.581Z,64.52
2023-01-09T03:25:29.107Z,65.21
2023-01-09T03:27:59.924Z,65.58
2023-01-09T03:30:30.449Z,65.66
2023-01-09T03:32:58.848Z,65.76
2023-01-09T03:35:27.681Z,66.86
2023-01-09T03:37:56.115Z,67.04
2023-01-09T03:40:24.282Z,67.74
2023-01-09T03:42:52.547Z,66.60
2023-01-09T03:45:20.624Z,66.49
2023-01-09T03:47:48.820Z,66.57
2023-01-09T03:50:17.186Z,67.03
2023-01-09T03:52:45.469Z,68.35
2023-01-09T03:55:15.512Z,67.86
2023-01-09T03:57:43.922Z,68.53
2023-01-09T04:00:12.761Z,68.77
2023-01-09T04:02:41.315Z,68.40
2023-01-09T04:05:10.010Z,68.58
2023-01-09T04:07:38.276Z,68.68
2023-01-09T04:10:08.962Z,68.76
2023-01-09T04:12:37.074Z,69.37
2023-01-09T04:15:05.681Z,69.29
2023-01-09T04:17:33.779Z,69.53
2023-01-09T04:20:01.896Z,69.98
2023-01-09T04:22:31.457Z,69.86
2023-01-09T04:24:59.491Z,69.84
2023-01-09T04:27:27.953Z,70.02
2023-01-09T04:29:56.225Z,69.88
2023-01-09T04:32:24.399Z,69.62
2023-01-09T04:34:52.588Z,69.60
2023-01-09T04:37:21.363Z,69.50
2023-01-09T04:39:51.501Z,68.94
2023-01-09T04:42:19.544Z,69.63
2023-01-09T04:44:47.615Z,69.39
2023-01-09T04:47:16.004Z,69.77
2023-01-09T04:49:44.168Z,69.68
2023-01-09T04:52:12.645Z,69.33
2023-01-09T04:54:41.031Z,69.48
2023-01-09T04:57:09.199Z,69.19
2023-01-09T04:59:37.314Z,68.70
2023-01-09T05:02:05.483Z,68.66
2023-01-09T05:04:34.304Z,68.53
2023-01-09T05:07:02.910Z,68.69
2023-01-09T05:09:31.622Z,68.81
2023-01-09T05:12:01.826Z,68.47
2023-01-09T05:14:30.408Z,68.17
2023-01-09T05:16:58.390Z,68.22
2023-01-09T05:19:26.646Z,68.01
2023-01-09T05:21:54.843Z,67.88
2023-01-09T05:24:22.985Z,67.81
2023-01-09T05:26:51.436Z,68.44
2023-01-09T05:29:19.901Z,68.33
2023-01-09T05:31:48.305Z,68.56
2023-01-09T05:34:16.368Z,68.75
2023-01-09T05:36:44.454Z,68.22
2023-01-09T05:39:12.819Z,68.17
2023-01-09T05:41:40.951Z,68.09
2023-01-09T05:44:09.151Z,67.48
2023-01-09T05:46:37.368Z,67.33
2023-01-09T05:49:05.412Z,67.59
2023-01-09T05:51:33.714Z,67.01
2023-01-09T05:54:03.149Z,67.13
2023-01-09T05:56:31.271Z,68.12
2023-01-09T05:58:59.576Z,67.78
2023-01-09T06:01:27.824Z,67.22
2023-01-09T06:03:56.083Z,67.49
2023-01-09T06:06:24.413Z,67.43
2023-01-09T06:08:52.656Z,67.41
2023-01-09T06:11:20.936Z,67.25
2023-01-09T06:13:49.014Z,66.95
2023-01-09T06:16:17.445Z,67.67
2023-01-09T06:18:46.485Z,67.10
2023-01-09T06:21:15.116Z,67.11
2023-01-09T06:23:43.230Z,67.77
2023-01-09T06:26:11.508Z,67.95
2023-01-09T06:28:39.990Z,67.75
2023-01-09T06:31:08.468Z,67.35
2023-01-09T06:33:36.762Z,66.86
2023-01-09T06:36:05.525Z,66.27
2023-01-09T06:38:33.598Z,65.70
2023-01-09T06:41:01.752Z,65.36
2023-01-09T06:43:30.258Z,65.54
2023-01-09T06:45:58.571Z,65.45
2023-01-09T06:48:26.801Z,65.04
2023-01-09T06:50:55.129Z,65.30
2023-01-09T06:53:23.294Z,65.51
2023-01-09T06:55:51.586Z,65.66
2023-01-09T06:58:20.830Z,65.89
2023-01-09T07:00:49.709Z,65.51
2023-01-09T07:03:22.710Z,64.92
2023-01-09T07:05:51.292Z,64.75
2023-01-09T07:08:19.697Z,64.62
2023-01-09T07:10:48.139Z,64.73
2023-01-09T07:13:16.396Z,64.57
2023-01-09T07:15:44.461Z,64.11
2023-01-09T07:18:12.615Z,64.17
2023-01-09T07:20:41.652Z,63.84
2023-01-09T07:23:13.203Z,63.54
2023-01-09T07:25:45.259Z,63.82
2023-01-09T07:28:13.466Z,63.61
2023-01-09T07:30:41.471Z,63.67
2023-01-09T07:33:09.623Z,62.38
2023-01-09T07:35:38.159Z,61.90
2023-01-09T07:38:06.296Z,62.19
2023-01-09T07:40:34.810Z,61.75
2023-01-09T07:43:03.205Z,61.82
2023-01-09T07:45:31.467Z,61.68
2023-01-09T07:47:59.648Z,61.42
2023-01-09T07:50:27.945Z,61.03
2023-01-09T07:52:56.293Z,60.38
2023-01-09T07:55:24.663Z,59.35
2023-01-09T07:57:53.144Z,58.56
2023-01-09T08:00:21.851Z,58.62
2023-01-09T08:02:54.189Z,58.76
2023-01-09T08:05:22.888Z,58.70
2023-01-09T08:07:51.551Z,58.62
2023-01-09T08:10:20.472Z,58.86
2023-01-09T08:12:49.676Z,58.78
2023-01-09T08:15:18.150Z,58.91
2023-01-09T08:17:47.477Z,58.48
2023-01-09T08:20:17.482Z,58.00
2023-01-09T08:22:49.781Z,58.10
2023-01-09T08:25:18.511Z,57.88
2023-01-09T08:27:47.232Z,57.73
2023-01-09T08:30:16.924Z,57.68
2023-01-09T08:32:49.560Z,57.73
2023-01-09T08:35:18.039Z,58.09
2023-01-09T08:37:48.096Z,57.94
2023-01-09T08:40:17.727Z,57.63
2023-01-09T08:43:04.260Z,57.45
2023-01-09T08:45:51.822Z,57.47
2023-01-09T08:48:19.927Z,57.11
2023-01-09T08:50:48.681Z,57.28
2023-01-09T08:53:16.919Z,56.48
2023-01-09T08:55:45.127Z,56.25
2023-01-09T08:58:13.242Z,56.35
2023-01-09T09:00:41.784Z,56.74
2023-01-09T09:03:11.707Z,56.73
2023-01-09T09:05:39.920Z,56.84
2023-01-09T09:08:07.987Z,56.87
2023-01-09T09:10:36.154Z,56.78
2023-01-09T09:13:04.620Z,56.80
2023-01-09T09:15:34.555Z,56.74
2023-01-09T09:18:05.349Z,56.11
2023-01-09T09:20:36.589Z,56.32
2023-01-09T09:23:05.931Z,56.48
2023-01-09T09:25:35.410Z,56.61
2023-01-09T09:28:03.554Z,56.33
2023-01-09T09:30:31.625Z,56.29
2023-01-09T09:32:59.772Z,56.52
2023-01-09T09:35:28.645Z,55.96
2023-01-09T09:38:04.847Z,55.69
2023-01-09T09:40:51.662Z,55.58
2023-01-09T09:44:13.382Z,54.56
2023-01-09T09:46:50.776Z,53.86
2023-01-09T09:49:25.265Z,53.74
2023-01-09T09:52:04.171Z,53.52
2023-01-09T09:54:42.584Z,53.20
2023-01-09T09:57:17.307Z,53.25
2023-01-09T09:59:51.272Z,53.47
2023-01-09T10:02:28.254Z,53.78
2023-01-09T10:05:15.070Z,54.30
2023-01-09T10:07:48.530Z,54.26
2023-01-09T10:10:49.599Z,54.07
2023-01-09T10:13:38.969Z,54.19
2023-01-09T10:16:25.073Z,54.03
2023-01-09T10:19:10.908Z,54.43
2023-01-09T10:21:51.280Z,53.88
2023-01-09T10:24:22.230Z,54.45
2023-01-09T10:26:54.357Z,54.42
2023-01-09T10:29:31.705Z,54.56
2023-01-09T10:32:35.052Z,54.12
2023-01-09T10:35:12.004Z,54.65
2023-01-09T10:37:47.385Z,54.59
2023-01-09T10:40:26.214Z,54.03
2023-01-09T10:43:14.021Z,53.77
2023-01-09T10:45:55.452Z,53.49
2023-01-09T10:48:38.097Z,53.45
2023-01-09T10:51:19.477Z,53.16
2023-01-09T10:53:56.022Z,52.58
2023-01-09T10:56:27.324Z,52.70
2023-01-09T10:58:56.971Z,52.64
2023-01-09T11:01:28.675Z,52.46
2023-01-09T11:04:01.820Z,52.50
2023-01-09T11:06:44.730Z,52.90
2023-01-09T11:09:15.195Z,53.30
2023-01-09T11:11:45.475Z,53.30
2023-01-09T11:14:27.835Z,53.27
2023-01-09T11:16:58.387Z,53.34
2023-01-09T11:19:27.726Z,53.46
2023-01-09T11:22:12.204Z,53.76
2023-01-09T11:24:40.383Z,54.14
2023-01-09T11:27:14.453Z,54.14
2023-01-09T11:29:43.460Z,54.35
2023-01-09T11:32:23.432Z,54.23
2023-01-09T11:34:51.612Z,54.87
2023-01-09T11:37:27.730Z,54.86
2023-01-09T11:39:59.152Z,54.92
2023-01-09T11:42:48.260Z,55.14
2023-01-09T11:45:18.791Z,55.39
2023-01-09T11:47:48.237Z,55.42
2023-01-09T11:50:27.071Z,55.52
2023-01-09T11:53:13.856Z,55.86
2023-01-09T11:55:43.537Z,55.71
2023-01-09T11:58:15.380Z,55.20
2023-01-09T12:01:11.295Z,54.87
2023-01-09T12:04:17.868Z,53.97
2023-01-09T12:07:10.224Z,53.36
2023-01-09T12:10:17.255Z,53.30
2023-01-09T12:13:14.359Z,52.89
2023-01-09T12:16:21.446Z,53.25
2023-01-09T12:18:49.751Z,52.93
2023-01-09T12:21:23.831Z,52.48
2023-01-09T12:24:42.694Z,50.90
2023-01-09T12:27:21.097Z,50.25
2023-01-09T12:30:16.035Z,50.04
2023-01-09T12:33:08.736Z,49.20
2023-01-09T12:35:45.733Z,48.76
2023-01-09T12:38:54.622Z,48.43
2023-01-09T12:41:23.261Z,48.30
2023-01-09T12:44:34.130Z,47.83
2023-01-09T12:47:09.133Z,47.96
2023-01-09T12:49:49.499Z,48.63
2023-01-09T12:52:32.518Z,49.69
2023-01-09T12:55:08.682Z,50.11
2023-01-09T12:57:42.586Z,50.19
2023-01-09T13:00:23.959Z,50.54
2023-01-09T13:03:12.887Z,50.84
2023-01-09T13:05:46.168Z,51.15
2023-01-09T13:08:32.114Z,51.35
2023-01-09T13:11:20.518Z,51.68
2023-01-09T13:14:06.768Z,51.47
2023-01-09T13:16:44.024Z,51.45
2023-01-09T13:19:27.951Z,52.08
2023-01-09T13:21:58.033Z,51.89
2023-01-09T13:24:47.445Z,51.56
2023-01-09T13:27:20.256Z,51.58
2023-01-09T13:29:55.698Z,50.99
2023-01-09T13:32:37.178Z,50.62
2023-01-09T13:35:13.012Z,50.10
2023-01-09T13:37:42.762Z,49.74
2023-01-09T13:40:20.806Z,49.65
2023-01-09T13:43:02.991Z,50.05
2023-01-09T13:45:37.124Z,50.67
2023-01-09T13:48:12.046Z,50.70
2023-01-09T13:50:42.324Z,50.64
2023-01-09T13:53:20.114Z,51.00
2023-01-09T13:55:57.641Z,51.07
2023-01-09T13:58:30.299Z,51.90
2023-01-09T14:01:04.814Z,52.89
2023-01-09T14:03:38.911Z,53.71
2023-01-09T14:06:13.266Z,54.13
2023-01-09T14:08:42.783Z,54.63
2023-01-09T14:11:19.849Z,55.02
2023-01-09T14:13:55.596Z,55.04
2023-01-09T14:16:27.266Z,55.39
2023-01-09T14:19:21.591Z,55.93
2023-01-09T14:21:56.631Z,56.24
2023-01-09T14:24:35.305Z,56.15
2023-01-09T14:27:03.647Z,56.20
2023-01-09T14:29:35.816Z,56.08
2023-01-09T14:32:22.563Z,56.17
2023-01-09T14:35:15.185Z,56.24
2023-01-09T14:37:45.401Z,56.23
2023-01-09T14:40:23.022Z,56.19
2023-01-09T14:42:55.167Z,56.17
2023-01-09T14:45:27.132Z,56.06
2023-01-09T14:48:03.992Z,56.10
2023-01-09T14:50:58.143Z,54.90
2023-01-09T14:53:34.457Z,55.69
2023-01-09T14:56:06.726Z,56.18
2023-01-09T14:58:37.022Z,56.69
2023-01-09T15:01:06.560Z,56.69
2023-01-09T15:03:44.392Z,56.46
2023-01-09T15:06:25.638Z,56.71
2023-01-09T15:09:03.069Z,56.82
2023-01-09T15:11:33.441Z,56.74
2023-01-09T15:14:05.011Z,56.62
2023-01-09T15:16:33.588Z,56.73
2023-01-09T15:19:05.177Z,56.66
2023-01-09T15:21:33.623Z,56.61
2023-01-09T15:24:13.231Z,56.61
2023-01-09T15:26:41.397Z,56.39
2023-01-09T15:29:18.278Z,56.74
2023-01-09T15:31:49.953Z,57.31
2023-01-09T15:34:22.444Z,57.29
2023-01-09T15:36:52.760Z,57.37
2023-01-09T15:39:36.914Z,57.37
2023-01-09T15:42:25.169Z,57.33
2023-01-09T15:44:53.951Z,57.52
2023-01-09T15:47:27.732Z,57.94
2023-01-09T15:49:57.103Z,57.93
2023-01-09T15:52:25.946Z,58.23
2023-01-09T15:54:54.022Z,58.60
2023-01-09T15:57:25.155Z,58.85
2023-01-09T15:59:54.192Z,58.65
2023-01-09T16:02:42.550Z,58.51
2023-01-09T16:05:16.611Z,58.56
2023-01-09T16:07:49.376Z,58.67
2023-01-09T16:10:51.968Z,58.84
2023-01-09T16:13:24.337Z,58.86
2023-01-09T16:15:53.590Z,59.64
2023-01-09T16:18:23.423Z,59.96
2023-01-09T16:21:03.044Z,60.48
2023-01-09T16:23:36.037Z,60.97
2023-01-09T16:26:14.439Z,61.12
2023-01-09T16:28:43.021Z,61.45
2023-01-09T16:31:21.000Z,61.48
2023-01-09T16:33:54.219Z,61.60
2023-01-09T16:36:23.919Z,62.07
2023-01-09T16:38:53.676Z,61.72
2023-01-09T16:41:41.331Z,61.61
2023-01-09T16:44:10.766Z,61.46
2023-01-09T16:46:43.631Z,60.95
2023-01-09T16:49:20.655Z,60.98
2023-01-09T16:51:49.279Z,60.29
2023-01-09T16:54:17.416Z,60.04
2023-01-09T16:56:49.282Z,59.96
2023-01-09T16:59:26.880Z,59.61
2023-01-09T17:01:55.726Z,59.44
2023-01-09T17:04:24.136Z,59.33
2023-01-09T17:06:52.295Z,58.71
2023-01-09T17:09:27.442Z,58.56
2023-01-09T17:11:55.791Z,58.59
2023-01-09T17:14:24.787Z,58.44
2023-01-09T17:16:53.094Z,58.64
2023-01-09T17:19:21.847Z,58.82
2023-01-09T17:21:49.876Z,59.10
2023-01-09T17:24:36.827Z,59.19
2023-01-09T17:27:23.595Z,58.98
2023-01-09T17:29:51.917Z,58.84
2023-01-09T17:32:20.187Z,58.83
2023-01-09T17:34:48.700Z,58.85
2023-01-09T17:37:19.335Z,58.66
2023-01-09T17:39:47.573Z,58.70
2023-01-09T17:42:15.955Z,58.72
2023-01-09T17:44:44.122Z,59.03
2023-01-09T17:47:18.148Z,59.54
2023-01-09T17:49:46.241Z,59.57
2023-01-09T17:52:14.579Z,59.86
2023-01-09T17:54:43.217Z,59.75
2023-01-09T17:57:16.818Z,59.92
2023-01-09T17:59:45.289Z,60.07
2023-01-09T18:02:20.000Z,59.90
2023-01-09T18:04:48.129Z,59.88
2023-01-09T18:07:17.348Z,60.02
2023-01-09T18:09:45.463Z,60.00
2023-01-09T18:12:14.212Z,60.07
2023-01-09T18:14:42.987Z,60.04
2023-01-09T18:17:13.351Z,60.34
2023-01-09T18:19:41.509Z,60.07
2023-01-09T18:22:09.554Z,59.88
2023-01-09T18:24:37.837Z,59.67
2023-01-09T18:27:06.113Z,59.69
2023-01-09T18:29:34.184Z,59.86
2023-01-09T18:32:02.383Z,60.15
2023-01-09T18:34:30.479Z,59.92
2023-01-09T18:36:58.701Z,59.98
2023-01-09T18:39:26.981Z,60.21
2023-01-09T18:41:55.170Z,60.32
2023-01-09T18:44:23.676Z,60.02
2023-01-09T18:46:51.799Z,60.18
2023-01-09T18:49:19.907Z,59.98
2023-01-09T18:51:48.233Z,59.86
2023-01-09T18:54:16.347Z,60.00
2023-01-09T18:56:44.387Z,59.79
2023-01-09T18:59:12.467Z,59.92
2023-01-09T19:01:40.829Z,59.98
2023-01-09T19:04:08.961Z,60.21
2023-01-09T19:06:37.826Z,60.29
2023-01-09T19:09:06.861Z,60.17
2023-01-09T19:11:35.057Z,60.12
2023-01-09T19:14:03.469Z,60.01
2023-01-09T19:16:31.694Z,59.96
2023-01-09T19:19:02.140Z,59.89
2023-01-09T19:21:30.624Z,59.76
2023-01-09T19:23:59.021Z,59.67
2023-01-09T19:26:29.010Z,59.95
2023-01-09T19:29:00.775Z,60.67
2023-01-09T19:31:29.201Z,61.92
2023-01-09T19:33:58.800Z,62.84
2023-01-09T19:36:28.415Z,63.51
2023-01-09T19:38:58.005Z,64.25
2023-01-09T19:41:27.479Z,64.02
2023-01-09T19:43:55.718Z,63.66
2023-01-09T19:46:25.838Z,63.73
2023-01-09T19:48:54.330Z,63.28
2023-01-09T19:51:22.894Z,62.67
2023-01-09T19:56:31.362Z,62.60
2023-01-09T19:59:02.254Z,62.56
2023-01-09T20:01:39.550Z,62.60
2023-01-09T20:04:13.584Z,62.39
2023-01-09T20:06:45.413Z,61.94
2023-01-09T20:09:17.312Z,61.39
2023-01-09T20:11:47.496Z,60.70
2023-01-09T20:14:19.169Z,60.18
2023-01-09T20:16:48.873Z,59.88
2023-01-09T20:19:17.236Z,59.95
2023-01-09T20:21:46.577Z,59.75
2023-01-09T20:24:16.841Z,59.45
2023-01-09T20:26:49.673Z,59.30
2023-01-09T20:29:18.424Z,59.06
2023-01-09T20:31:47.047Z,58.49
2023-01-09T20:34:15.588Z,58.63
2023-01-09T20:36:43.927Z,58.70
2023-01-09T20:39:12.509Z,58.41
2023-01-09T20:41:40.975Z,58.39
2023-01-09T20:44:14.158Z,58.09
2023-01-09T20:46:48.156Z,57.98
2023-01-09T20:49:21.035Z,58.30
2023-01-09T20:51:52.935Z,57.99
2023-01-09T20:54:22.442Z,57.80
2023-01-09T20:56:50.990Z,57.37
2023-01-09T20:59:23.139Z,57.46
2023-01-09T21:01:51.637Z,57.29
2023-01-09T21:04:19.931Z,57.52
2023-01-09T21:06:49.992Z,57.49
2023-01-09T21:09:18.924Z,57.91
2023-01-09T21:11:47.099Z,58.30
2023-01-09T21:14:15.267Z,58.43
2023-01-09T21:16:47.912Z,58.24
2023-01-09T21:19:22.854Z,57.72
2023-01-09T21:21:53.245Z,57.42
2023-01-09T21:24:22.002Z,57.94
2023-01-09T21:26:50.168Z,58.14
2023-01-09T21:29:18.344Z,58.46
2023-01-09T21:31:46.479Z,58.43
2023-01-09T21:34:15.820Z,58.49
2023-01-09T21:36:45.200Z,58.51
2023-01-09T21:39:13.478Z,58.52
2023-01-09T21:42:00.136Z,58.34
2023-01-09T21:44:47.099Z,58.40
2023-01-09T21:47:15.175Z,58.48
2023-01-09T21:49:44.604Z,58.36
2023-01-09T21:52:13.954Z,58.41
2023-01-09T21:54:42.150Z,58.82
2023-01-09T21:57:10.955Z,58.58
2023-01-09T21:59:39.111Z,58.80
2023-01-09T22:02:07.179Z,59.00
2023-01-09T22:04:35.256Z,59.22
2023-01-09T22:07:03.524Z,59.38
2023-01-09T22:09:31.542Z,59.43
2023-01-09T22:11:59.500Z,59.51
2023-01-09T22:14:27.547Z,59.50
2023-01-09T22:16:55.703Z,59.43
2023-01-09T22:19:23.695Z,59.47
2023-01-09T22:21:51.848Z,59.59
2023-01-09T22:24:21.749Z,59.67
2023-01-09T22:26:50.015Z,59.86
2023-01-09T22:29:19.035Z,59.97
2023-01-09T22:31:47.986Z,59.99
2023-01-09T22:34:18.552Z,59.84
2023-01-09T22:36:47.414Z,59.79
2023-01-09T22:39:18.362Z,59.80
2023-01-09T22:41:51.983Z,59.89
2023-01-09T22:44:20.264Z,59.92
2023-01-09T22:46:48.511Z,60.11
2023-01-09T22:49:19.572Z,60.11
2023-01-09T22:51:47.644Z,60.13
2023-01-09T22:54:16.062Z,59.86
2023-01-09T22:56:44.181Z,59.58
2023-01-09T22:59:12.412Z,59.56
2023-01-09T23:01:40.657Z,59.29
2023-01-09T23:04:17.974Z,59.30
2023-01-09T23:06:46.213Z,59.29
2023-01-09T23:09:14.980Z,59.36
2023-01-09T23:12:01.687Z,59.48
2023-01-09T23:14:31.945Z,59.49
2023-01-09T23:17:00.209Z,59.20
2023-01-09T23:19:30.741Z,59.30
2023-01-09T23:22:00.929Z,59.50
2023-01-09T23:24:30.108Z,59.34
2023-01-09T23:26:58.382Z,59.20
2023-01-09T23:29:26.766Z,58.98
2023-01-09T23:31:54.953Z,58.64
2023-01-09T23:34:25.714Z,58.21
2023-01-09T23:36:57.425Z,58.63
2023-01-09T23:39:25.724Z,59.42
2023-01-09T23:42:12.737Z,59.59
2023-01-09T23:44:40.837Z,60.09
2023-01-09T23:47:09.285Z,59.94
2023-01-09T23:49:37.607Z,59.15
2023-01-09T23:52:06.794Z,58.60
2023-01-09T23:54:36.470Z,58.55
2023-01-09T23:57:05.153Z,58.30
2023-01-09T23:59:33.745Z,58.10
